sensor_id;sensor_type;location;lat;lon;timestamp;temperature;humidity
11559;DHT22;5835;42.930;25.178;2023-10-13T00:01:23;10.00;1.00
11559;DHT22;5835;42.930;25.178;2023-10-13T00:03:50;9.80;1.00
11559;DHT22;5835;42.930;25.178;2023-10-13T00:06:18;9.70;1.00
11559;DHT22;5835;42.930;25.178;2023-10-13T00:08:45;9.70;1.00
11559;DHT22;5835;42.930;25.178;2023-10-13T00:11:13;9.80;24.90
11559;DHT22;5835;42.930;25.178;2023-10-13T00:13:40;9.70;1.00
11559;DHT22;5835;42.930;25.178;2023-10-13T00:16:10;9.60;1.00
11559;DHT22;5835;42.930;25.178;2023-10-13T00:18:43;9.70;1.00
11559;DHT22;5835;42.930;25.178;2023-10-13T00:21:11;9.60;1.00
11559;DHT22;5835;42.930;25.178;2023-10-13T00:23:46;9.60;1.00
11559;DHT22;5835;42.930;25.178;2023-10-13T00:26:20;9.50;1.00
11559;DHT22;5835;42.930;25.178;2023-10-13T00:28:51;9.30;1.00
11559;DHT22;5835;42.930;25.178;2023-10-13T00:31:26;9.30;46.40
11559;DHT22;5835;42.930;25.178;2023-10-13T00:33:58;9.20;99.90
11559;DHT22;5835;42.930;25.178;2023-10-13T00:36:35;9.30;99.90
11559;DHT22;5835;42.930;25.178;2023-10-13T00:39:03;9.30;99.90
11559;DHT22;5835;42.930;25.178;2023-10-13T00:41:30;9.30;99.90
11559;DHT22;5835;42.930;25.178;2023-10-13T00:44:17;9.40;99.90
11559;DHT22;5835;42.930;25.178;2023-10-13T00:46:52;9.50;99.90
11559;DHT22;5835;42.930;25.178;2023-10-13T00:49:21;9.60;80.50
11559;DHT22;5835;42.930;25.178;2023-10-13T00:51:49;9.70;69.60
11559;DHT22;5835;42.930;25.178;2023-10-13T00:54:16;9.70;1.00
11559;DHT22;5835;42.930;25.178;2023-10-13T00:56:46;9.60;1.00
11559;DHT22;5835;42.930;25.178;2023-10-13T00:59:16;9.50;1.00
11559;DHT22;5835;42.930;25.178;2023-10-13T01:01:43;9.50;1.00
11559;DHT22;5835;42.930;25.178;2023-10-13T01:04:12;9.50;1.00
11559;DHT22;5835;42.930;25.178;2023-10-13T01:06:40;9.60;1.00
11559;DHT22;5835;42.930;25.178;2023-10-13T01:09:08;9.60;1.00
11559;DHT22;5835;42.930;25.178;2023-10-13T01:11:44;9.70;99.90
11559;DHT22;5835;42.930;25.178;2023-10-13T01:14:12;9.60;1.00
11559;DHT22;5835;42.930;25.178;2023-10-13T01:16:41;9.30;1.00
11559;DHT22;5835;42.930;25.178;2023-10-13T01:19:11;9.10;1.00
11559;DHT22;5835;42.930;25.178;2023-10-13T01:21:38;9.20;32.70
11559;DHT22;5835;42.930;25.178;2023-10-13T01:24:09;9.20;32.40
11559;DHT22;5835;42.930;25.178;2023-10-13T01:26:37;9.30;12.70
11559;DHT22;5835;42.930;25.178;2023-10-13T01:29:06;9.40;1.00
11559;DHT22;5835;42.930;25.178;2023-10-13T01:31:38;9.30;1.00
11559;DHT22;5835;42.930;25.178;2023-10-13T01:34:12;9.10;55.40
11559;DHT22;5835;42.930;25.178;2023-10-13T01:36:39;9.00;99.90
11559;DHT22;5835;42.930;25.178;2023-10-13T01:39:09;9.10;99.90
11559;DHT22;5835;42.930;25.178;2023-10-13T01:41:37;9.20;91.20
11559;DHT22;5835;42.930;25.178;2023-10-13T01:44:06;8.90;99.90
11559;DHT22;5835;42.930;25.178;2023-10-13T01:46:34;8.80;99.90
11559;DHT22;5835;42.930;25.178;2023-10-13T01:49:03;8.70;99.90
11559;DHT22;5835;42.930;25.178;2023-10-13T01:51:29;8.60;99.90
11559;DHT22;5835;42.930;25.178;2023-10-13T01:53:56;8.60;99.90
11559;DHT22;5835;42.930;25.178;2023-10-13T01:56:23;8.60;99.90
11559;DHT22;5835;42.930;25.178;2023-10-13T01:58:51;8.60;99.90
11559;DHT22;5835;42.930;25.178;2023-10-13T02:01:20;8.60;99.90
11559;DHT22;5835;42.930;25.178;2023-10-13T02:03:55;8.70;99.90
11559;DHT22;5835;42.930;25.178;2023-10-13T02:06:28;8.70;99.90
11559;DHT22;5835;42.930;25.178;2023-10-13T02:08:59;8.70;99.90
11559;DHT22;5835;42.930;25.178;2023-10-13T02:11:33;8.80;99.90
11559;DHT22;5835;42.930;25.178;2023-10-13T02:14:00;8.70;99.90
11559;DHT22;5835;42.930;25.178;2023-10-13T02:16:26;8.70;99.90
11559;DHT22;5835;42.930;25.178;2023-10-13T02:18:54;8.80;99.90
11559;DHT22;5835;42.930;25.178;2023-10-13T02:21:23;8.90;99.90
11559;DHT22;5835;42.930;25.178;2023-10-13T02:23:58;8.90;99.90
11559;DHT22;5835;42.930;25.178;2023-10-13T02:26:30;8.90;99.90
11559;DHT22;5835;42.930;25.178;2023-10-13T02:29:00;9.00;99.90
11559;DHT22;5835;42.930;25.178;2023-10-13T02:31:29;8.80;99.90
11559;DHT22;5835;42.930;25.178;2023-10-13T02:33:56;8.60;99.90
11559;DHT22;5835;42.930;25.178;2023-10-13T02:36:26;8.60;99.90
11559;DHT22;5835;42.930;25.178;2023-10-13T02:39:03;8.70;99.90
11559;DHT22;5835;42.930;25.178;2023-10-13T02:41:34;8.60;99.90
11559;DHT22;5835;42.930;25.178;2023-10-13T02:44:04;8.50;99.90
11559;DHT22;5835;42.930;25.178;2023-10-13T02:46:33;8.60;99.90
11559;DHT22;5835;42.930;25.178;2023-10-13T02:49:02;8.60;99.90
11559;DHT22;5835;42.930;25.178;2023-10-13T02:51:37;8.50;99.90
11559;DHT22;5835;42.930;25.178;2023-10-13T02:54:05;8.40;99.90
11559;DHT22;5835;42.930;25.178;2023-10-13T02:56:36;8.40;99.90
11559;DHT22;5835;42.930;25.178;2023-10-13T02:59:04;8.40;99.90
11559;DHT22;5835;42.930;25.178;2023-10-13T03:01:33;8.40;99.90
11559;DHT22;5835;42.930;25.178;2023-10-13T03:04:01;8.40;99.90
11559;DHT22;5835;42.930;25.178;2023-10-13T03:06:30;8.40;99.90
11559;DHT22;5835;42.930;25.178;2023-10-13T03:09:00;8.40;99.90
11559;DHT22;5835;42.930;25.178;2023-10-13T03:11:39;8.40;99.90
11559;DHT22;5835;42.930;25.178;2023-10-13T03:14:13;8.40;99.90
11559;DHT22;5835;42.930;25.178;2023-10-13T03:16:51;8.40;99.90
11559;DHT22;5835;42.930;25.178;2023-10-13T03:19:18;8.20;99.90
11559;DHT22;5835;42.930;25.178;2023-10-13T03:21:45;8.10;99.90
11559;DHT22;5835;42.930;25.178;2023-10-13T03:24:21;8.00;99.90
11559;DHT22;5835;42.930;25.178;2023-10-13T03:26:59;8.30;99.90
11559;DHT22;5835;42.930;25.178;2023-10-13T03:29:36;8.40;99.90
11559;DHT22;5835;42.930;25.178;2023-10-13T03:32:03;8.60;99.90
11559;DHT22;5835;42.930;25.178;2023-10-13T03:34:37;8.70;99.90
11559;DHT22;5835;42.930;25.178;2023-10-13T03:37:12;8.60;99.90
11559;DHT22;5835;42.930;25.178;2023-10-13T03:39:44;8.40;99.90
11559;DHT22;5835;42.930;25.178;2023-10-13T03:42:11;8.40;99.90
11559;DHT22;5835;42.930;25.178;2023-10-13T03:44:46;8.20;99.90
11559;DHT22;5835;42.930;25.178;2023-10-13T03:47:14;8.10;99.90
11559;DHT22;5835;42.930;25.178;2023-10-13T03:49:54;8.00;99.90
11559;DHT22;5835;42.930;25.178;2023-10-13T03:52:41;8.00;99.90
11559;DHT22;5835;42.930;25.178;2023-10-13T03:55:09;8.20;99.90
11559;DHT22;5835;42.930;25.178;2023-10-13T03:57:44;8.40;99.90
11559;DHT22;5835;42.930;25.178;2023-10-13T04:00:15;8.20;99.90
11559;DHT22;5835;42.930;25.178;2023-10-13T04:02:49;8.10;99.90
11559;DHT22;5835;42.930;25.178;2023-10-13T04:05:29;8.00;99.90
11559;DHT22;5835;42.930;25.178;2023-10-13T04:08:05;8.10;99.90
11559;DHT22;5835;42.930;25.178;2023-10-13T04:10:51;8.20;99.90
11559;DHT22;5835;42.930;25.178;2023-10-13T04:13:36;8.30;99.90
11559;DHT22;5835;42.930;25.178;2023-10-13T04:16:22;8.20;99.90
11559;DHT22;5835;42.930;25.178;2023-10-13T04:19:03;8.00;99.90
11559;DHT22;5835;42.930;25.178;2023-10-13T04:21:35;8.00;99.90
11559;DHT22;5835;42.930;25.178;2023-10-13T04:24:21;7.90;99.90
11559;DHT22;5835;42.930;25.178;2023-10-13T04:27:05;7.80;99.90
11559;DHT22;5835;42.930;25.178;2023-10-13T04:29:50;7.80;99.90
11559;DHT22;5835;42.930;25.178;2023-10-13T04:32:38;7.90;99.90
11559;DHT22;5835;42.930;25.178;2023-10-13T04:35:08;7.80;99.90
11559;DHT22;5835;42.930;25.178;2023-10-13T04:37:45;7.80;99.90
11559;DHT22;5835;42.930;25.178;2023-10-13T04:40:18;7.80;99.90
11559;DHT22;5835;42.930;25.178;2023-10-13T04:42:51;7.90;99.90
11559;DHT22;5835;42.930;25.178;2023-10-13T04:45:20;7.90;99.90
11559;DHT22;5835;42.930;25.178;2023-10-13T04:48:12;7.90;99.90
11559;DHT22;5835;42.930;25.178;2023-10-13T04:51:00;8.00;99.90
11559;DHT22;5835;42.930;25.178;2023-10-13T04:53:45;8.10;99.90
11559;DHT22;5835;42.930;25.178;2023-10-13T04:56:30;8.20;99.90
11559;DHT22;5835;42.930;25.178;2023-10-13T04:59:15;8.30;99.90
11559;DHT22;5835;42.930;25.178;2023-10-13T05:02:01;8.40;99.90
11559;DHT22;5835;42.930;25.178;2023-10-13T05:04:47;8.60;99.90
11559;DHT22;5835;42.930;25.178;2023-10-13T05:07:32;8.50;99.90
11559;DHT22;5835;42.930;25.178;2023-10-13T05:10:18;8.30;99.90
11559;DHT22;5835;42.930;25.178;2023-10-13T05:13:03;8.10;99.90
11559;DHT22;5835;42.930;25.178;2023-10-13T05:16:00;8.20;99.90
11559;DHT22;5835;42.930;25.178;2023-10-13T05:18:45;8.20;99.90
11559;DHT22;5835;42.930;25.178;2023-10-13T05:21:31;8.20;99.90
11559;DHT22;5835;42.930;25.178;2023-10-13T05:24:16;8.20;99.90
11559;DHT22;5835;42.930;25.178;2023-10-13T05:27:01;8.40;99.90
11559;DHT22;5835;42.930;25.178;2023-10-13T05:29:46;8.60;99.90
11559;DHT22;5835;42.930;25.178;2023-10-13T05:32:32;8.80;99.90
11559;DHT22;5835;42.930;25.178;2023-10-13T05:35:20;8.80;99.90
11559;DHT22;5835;42.930;25.178;2023-10-13T05:38:06;8.70;99.90
11559;DHT22;5835;42.930;25.178;2023-10-13T05:40:55;8.50;99.90
11559;DHT22;5835;42.930;25.178;2023-10-13T05:43:40;8.50;99.90
11559;DHT22;5835;42.930;25.178;2023-10-13T05:46:25;8.50;99.90
11559;DHT22;5835;42.930;25.178;2023-10-13T05:49:19;8.50;99.90
11559;DHT22;5835;42.930;25.178;2023-10-13T05:52:04;8.70;99.90
11559;DHT22;5835;42.930;25.178;2023-10-13T05:54:46;8.80;99.90
11559;DHT22;5835;42.930;25.178;2023-10-13T05:57:31;8.90;99.90
11559;DHT22;5835;42.930;25.178;2023-10-13T06:00:18;9.10;99.90
11559;DHT22;5835;42.930;25.178;2023-10-13T06:03:03;9.20;99.90
11559;DHT22;5835;42.930;25.178;2023-10-13T06:05:49;9.30;99.90
11559;DHT22;5835;42.930;25.178;2023-10-13T06:08:33;9.40;99.90
11559;DHT22;5835;42.930;25.178;2023-10-13T06:11:20;9.50;99.90
11559;DHT22;5835;42.930;25.178;2023-10-13T06:14:05;9.60;99.90
11559;DHT22;5835;42.930;25.178;2023-10-13T06:16:50;9.80;99.90
11559;DHT22;5835;42.930;25.178;2023-10-13T06:19:35;10.00;99.90
11559;DHT22;5835;42.930;25.178;2023-10-13T06:22:20;10.20;99.90
11559;DHT22;5835;42.930;25.178;2023-10-13T06:25:05;10.40;99.90
11559;DHT22;5835;42.930;25.178;2023-10-13T06:27:52;10.50;99.90
11559;DHT22;5835;42.930;25.178;2023-10-13T06:30:37;10.70;90.20
11559;DHT22;5835;42.930;25.178;2023-10-13T06:33:05;10.80;37.00
11559;DHT22;5835;42.930;25.178;2023-10-13T06:35:34;10.80;1.00
11559;DHT22;5835;42.930;25.178;2023-10-13T06:38:05;10.90;1.00
11559;DHT22;5835;42.930;25.178;2023-10-13T06:40:46;10.90;1.00
11559;DHT22;5835;42.930;25.178;2023-10-13T06:43:15;11.10;1.00
11559;DHT22;5835;42.930;25.178;2023-10-13T06:45:43;11.20;1.00
11559;DHT22;5835;42.930;25.178;2023-10-13T06:48:16;11.30;1.00
11559;DHT22;5835;42.930;25.178;2023-10-13T06:50:48;11.50;1.00
11559;DHT22;5835;42.930;25.178;2023-10-13T06:53:18;11.60;99.90
11559;DHT22;5835;42.930;25.178;2023-10-13T06:55:45;11.80;99.90
11559;DHT22;5835;42.930;25.178;2023-10-13T06:58:16;12.00;99.90
11559;DHT22;5835;42.930;25.178;2023-10-13T07:00:49;12.10;99.90
11559;DHT22;5835;42.930;25.178;2023-10-13T07:03:20;12.20;99.90
11559;DHT22;5835;42.930;25.178;2023-10-13T07:05:47;12.40;1.00
11559;DHT22;5835;42.930;25.178;2023-10-13T07:08:15;12.50;54.50
11559;DHT22;5835;42.930;25.178;2023-10-13T07:10:49;12.70;99.90
11559;DHT22;5835;42.930;25.178;2023-10-13T07:13:28;13.00;1.00
11559;DHT22;5835;42.930;25.178;2023-10-13T07:15:56;13.20;1.00
11559;DHT22;5835;42.930;25.178;2023-10-13T07:18:31;13.30;45.60
11559;DHT22;5835;42.930;25.178;2023-10-13T07:21:03;13.50;1.00
11559;DHT22;5835;42.930;25.178;2023-10-13T07:23:36;13.80;1.00
11559;DHT22;5835;42.930;25.178;2023-10-13T07:26:04;13.90;1.00
11559;DHT22;5835;42.930;25.178;2023-10-13T07:28:35;14.00;99.90
11559;DHT22;5835;42.930;25.178;2023-10-13T07:31:02;14.20;99.90
11559;DHT22;5835;42.930;25.178;2023-10-13T07:33:39;14.30;1.00
11559;DHT22;5835;42.930;25.178;2023-10-13T07:36:08;14.50;1.00
11559;DHT22;5835;42.930;25.178;2023-10-13T07:38:44;14.70;99.90
11559;DHT22;5835;42.930;25.178;2023-10-13T07:41:15;14.90;92.20
11559;DHT22;5835;42.930;25.178;2023-10-13T07:43:44;15.10;1.00
11559;DHT22;5835;42.930;25.178;2023-10-13T07:46:11;15.40;99.90
11559;DHT22;5835;42.930;25.178;2023-10-13T07:48:39;15.50;99.90
11559;DHT22;5835;42.930;25.178;2023-10-13T07:51:08;15.70;1.00
11559;DHT22;5835;42.930;25.178;2023-10-13T07:53:37;15.80;1.00
11559;DHT22;5835;42.930;25.178;2023-10-13T07:56:06;16.20;1.00
11559;DHT22;5835;42.930;25.178;2023-10-13T07:58:34;16.50;1.00
11559;DHT22;5835;42.930;25.178;2023-10-13T08:01:14;16.60;99.90
11559;DHT22;5835;42.930;25.178;2023-10-13T08:03:45;16.90;99.90
11559;DHT22;5835;42.930;25.178;2023-10-13T08:06:13;17.10;99.90
11559;DHT22;5835;42.930;25.178;2023-10-13T08:08:52;17.30;99.90
11559;DHT22;5835;42.930;25.178;2023-10-13T08:11:32;17.60;99.90
11559;DHT22;5835;42.930;25.178;2023-10-13T08:14:02;17.70;31.90
11559;DHT22;5835;42.930;25.178;2023-10-13T08:16:39;17.80;1.00
11559;DHT22;5835;42.930;25.178;2023-10-13T08:19:19;18.10;1.00
11559;DHT22;5835;42.930;25.178;2023-10-13T08:21:47;18.20;1.00
11559;DHT22;5835;42.930;25.178;2023-10-13T08:24:18;18.40;1.00
11559;DHT22;5835;42.930;25.178;2023-10-13T08:26:53;18.60;1.00
11559;DHT22;5835;42.930;25.178;2023-10-13T08:29:38;18.80;1.00
11559;DHT22;5835;42.930;25.178;2023-10-13T08:32:24;18.90;1.00
11559;DHT22;5835;42.930;25.178;2023-10-13T08:35:03;19.00;1.00
11559;DHT22;5835;42.930;25.178;2023-10-13T08:37:48;19.10;1.00
11559;DHT22;5835;42.930;25.178;2023-10-13T08:40:27;19.20;1.00
11559;DHT22;5835;42.930;25.178;2023-10-13T08:43:18;19.40;1.00
11559;DHT22;5835;42.930;25.178;2023-10-13T08:45:45;19.60;1.00
11559;DHT22;5835;42.930;25.178;2023-10-13T08:48:26;19.70;1.00
11559;DHT22;5835;42.930;25.178;2023-10-13T08:51:03;19.80;1.00
11559;DHT22;5835;42.930;25.178;2023-10-13T08:53:38;20.00;1.00
11559;DHT22;5835;42.930;25.178;2023-10-13T08:56:18;20.20;1.00
11559;DHT22;5835;42.930;25.178;2023-10-13T08:59:00;20.30;1.00
11559;DHT22;5835;42.930;25.178;2023-10-13T09:01:34;20.50;1.00
11559;DHT22;5835;42.930;25.178;2023-10-13T09:04:03;20.60;1.00
11559;DHT22;5835;42.930;25.178;2023-10-13T09:06:50;20.90;1.00
11559;DHT22;5835;42.930;25.178;2023-10-13T09:09:48;21.20;1.00
11559;DHT22;5835;42.930;25.178;2023-10-13T09:12:27;21.30;1.00
11559;DHT22;5835;42.930;25.178;2023-10-13T09:15:07;21.50;1.00
11559;DHT22;5835;42.930;25.178;2023-10-13T09:17:46;21.80;1.00
11559;DHT22;5835;42.930;25.178;2023-10-13T09:20:30;22.00;1.00
11559;DHT22;5835;42.930;25.178;2023-10-13T09:23:10;22.20;1.00
11559;DHT22;5835;42.930;25.178;2023-10-13T09:25:39;22.50;1.00
11559;DHT22;5835;42.930;25.178;2023-10-13T09:28:20;22.80;1.00
11559;DHT22;5835;42.930;25.178;2023-10-13T09:30:49;22.90;1.00
11559;DHT22;5835;42.930;25.178;2023-10-13T09:33:21;23.10;1.00
11559;DHT22;5835;42.930;25.178;2023-10-13T09:35:55;23.40;1.00
11559;DHT22;5835;42.930;25.178;2023-10-13T09:38:25;23.20;1.00
11559;DHT22;5835;42.930;25.178;2023-10-13T09:40:54;23.40;1.00
11559;DHT22;5835;42.930;25.178;2023-10-13T09:43:23;23.50;1.00
11559;DHT22;5835;42.930;25.178;2023-10-13T09:45:53;23.40;1.00
11559;DHT22;5835;42.930;25.178;2023-10-13T09:48:35;23.60;1.00
11559;DHT22;5835;42.930;25.178;2023-10-13T09:51:04;23.80;99.90
11559;DHT22;5835;42.930;25.178;2023-10-13T09:53:35;23.70;99.90
11559;DHT22;5835;42.930;25.178;2023-10-13T09:56:10;24.00;99.90
11559;DHT22;5835;42.930;25.178;2023-10-13T09:58:46;24.20;99.90
11559;DHT22;5835;42.930;25.178;2023-10-13T10:01:22;24.10;99.90
11559;DHT22;5835;42.930;25.178;2023-10-13T10:04:07;24.20;99.90
11559;DHT22;5835;42.930;25.178;2023-10-13T10:06:37;24.70;99.90
11559;DHT22;5835;42.930;25.178;2023-10-13T10:09:11;24.70;99.90
11559;DHT22;5835;42.930;25.178;2023-10-13T10:12:01;25.00;99.90
11559;DHT22;5835;42.930;25.178;2023-10-13T10:15:09;25.30;99.90
11559;DHT22;5835;42.930;25.178;2023-10-13T10:17:46;25.00;99.90
11559;DHT22;5835;42.930;25.178;2023-10-13T10:20:16;25.40;99.90
11559;DHT22;5835;42.930;25.178;2023-10-13T10:22:57;25.50;99.90
11559;DHT22;5835;42.930;25.178;2023-10-13T10:25:32;25.10;99.90
11559;DHT22;5835;42.930;25.178;2023-10-13T10:28:02;25.20;99.90
11559;DHT22;5835;42.930;25.178;2023-10-13T10:30:32;25.30;99.90
11559;DHT22;5835;42.930;25.178;2023-10-13T10:33:01;25.20;99.90
11559;DHT22;5835;42.930;25.178;2023-10-13T10:35:34;25.30;99.90
11559;DHT22;5835;42.930;25.178;2023-10-13T10:38:12;25.30;99.90
11559;DHT22;5835;42.930;25.178;2023-10-13T10:40:50;25.30;99.90
11559;DHT22;5835;42.930;25.178;2023-10-13T10:43:18;25.20;99.90
11559;DHT22;5835;42.930;25.178;2023-10-13T10:45:49;25.10;99.90
11559;DHT22;5835;42.930;25.178;2023-10-13T10:48:17;25.40;99.90
11559;DHT22;5835;42.930;25.178;2023-10-13T10:50:50;25.50;99.90
11559;DHT22;5835;42.930;25.178;2023-10-13T10:53:20;25.70;99.90
11559;DHT22;5835;42.930;25.178;2023-10-13T10:55:49;25.30;99.90
11559;DHT22;5835;42.930;25.178;2023-10-13T10:58:16;25.50;99.90
11559;DHT22;5835;42.930;25.178;2023-10-13T11:01:05;25.70;99.90
11559;DHT22;5835;42.930;25.178;2023-10-13T11:03:37;25.80;99.90
11559;DHT22;5835;42.930;25.178;2023-10-13T11:06:13;25.40;99.90
11559;DHT22;5835;42.930;25.178;2023-10-13T11:08:45;25.40;99.90
11559;DHT22;5835;42.930;25.178;2023-10-13T11:11:28;25.30;99.90
11559;DHT22;5835;42.930;25.178;2023-10-13T11:13:57;25.60;99.90
11559;DHT22;5835;42.930;25.178;2023-10-13T11:16:46;25.60;99.90
11559;DHT22;5835;42.930;25.178;2023-10-13T11:19:17;25.80;99.90
11559;DHT22;5835;42.930;25.178;2023-10-13T11:21:52;26.00;99.90
11559;DHT22;5835;42.930;25.178;2023-10-13T11:24:21;26.10;99.90
11559;DHT22;5835;42.930;25.178;2023-10-13T11:26:48;26.30;99.90
11559;DHT22;5835;42.930;25.178;2023-10-13T11:29:16;26.40;99.90
11559;DHT22;5835;42.930;25.178;2023-10-13T11:31:47;26.40;99.90
11559;DHT22;5835;42.930;25.178;2023-10-13T11:34:21;26.50;99.90
11559;DHT22;5835;42.930;25.178;2023-10-13T11:36:48;26.50;99.90
11559;DHT22;5835;42.930;25.178;2023-10-13T11:39:15;26.40;99.90
11559;DHT22;5835;42.930;25.178;2023-10-13T11:41:49;26.30;99.90
11559;DHT22;5835;42.930;25.178;2023-10-13T11:44:21;26.30;99.90
11559;DHT22;5835;42.930;25.178;2023-10-13T11:46:59;26.60;99.90
11559;DHT22;5835;42.930;25.178;2023-10-13T11:49:59;26.80;99.90
11559;DHT22;5835;42.930;25.178;2023-10-13T11:52:26;27.20;99.90
11559;DHT22;5835;42.930;25.178;2023-10-13T11:54:55;26.70;99.90
11559;DHT22;5835;42.930;25.178;2023-10-13T11:57:23;26.90;99.90
11559;DHT22;5835;42.930;25.178;2023-10-13T11:59:50;26.70;99.90
11559;DHT22;5835;42.930;25.178;2023-10-13T12:02:21;27.20;99.90
11559;DHT22;5835;42.930;25.178;2023-10-13T12:05:07;27.20;99.90
11559;DHT22;5835;42.930;25.178;2023-10-13T12:07:43;27.00;99.90
11559;DHT22;5835;42.930;25.178;2023-10-13T12:10:15;26.90;99.90
11559;DHT22;5835;42.930;25.178;2023-10-13T12:12:44;27.00;99.90
11559;DHT22;5835;42.930;25.178;2023-10-13T12:15:12;26.60;99.90
11559;DHT22;5835;42.930;25.178;2023-10-13T12:17:52;27.00;99.90
11559;DHT22;5835;42.930;25.178;2023-10-13T12:20:19;27.30;99.90
11559;DHT22;5835;42.930;25.178;2023-10-13T12:22:59;27.30;99.90
11559;DHT22;5835;42.930;25.178;2023-10-13T12:25:37;27.00;99.90
11559;DHT22;5835;42.930;25.178;2023-10-13T12:28:24;27.20;99.90
11559;DHT22;5835;42.930;25.178;2023-10-13T12:30:54;27.30;99.90
11559;DHT22;5835;42.930;25.178;2023-10-13T12:33:24;27.30;99.90
11559;DHT22;5835;42.930;25.178;2023-10-13T12:36:01;27.00;99.90
11559;DHT22;5835;42.930;25.178;2023-10-13T12:38:53;27.40;99.90
11559;DHT22;5835;42.930;25.178;2023-10-13T12:41:38;27.40;99.90
11559;DHT22;5835;42.930;25.178;2023-10-13T12:44:25;27.10;99.90
11559;DHT22;5835;42.930;25.178;2023-10-13T12:47:10;27.20;99.90
11559;DHT22;5835;42.930;25.178;2023-10-13T12:49:56;27.00;99.90
11559;DHT22;5835;42.930;25.178;2023-10-13T12:52:33;27.00;99.90
11559;DHT22;5835;42.930;25.178;2023-10-13T12:55:00;26.90;99.90
11559;DHT22;5835;42.930;25.178;2023-10-13T12:57:39;26.90;99.90
11559;DHT22;5835;42.930;25.178;2023-10-13T13:00:15;26.90;99.90
11559;DHT22;5835;42.930;25.178;2023-10-13T13:02:53;27.00;99.90
11559;DHT22;5835;42.930;25.178;2023-10-13T13:05:22;27.00;99.90
11559;DHT22;5835;42.930;25.178;2023-10-13T13:07:54;27.00;99.90
11559;DHT22;5835;42.930;25.178;2023-10-13T13:10:22;27.00;99.90
11559;DHT22;5835;42.930;25.178;2023-10-13T13:13:03;26.60;99.90
11559;DHT22;5835;42.930;25.178;2023-10-13T13:15:31;26.60;99.90
11559;DHT22;5835;42.930;25.178;2023-10-13T13:17:59;26.60;99.90
11559;DHT22;5835;42.930;25.178;2023-10-13T13:20:36;27.00;99.90
11559;DHT22;5835;42.930;25.178;2023-10-13T13:23:05;27.00;99.90
11559;DHT22;5835;42.930;25.178;2023-10-13T13:25:32;27.00;99.90
11559;DHT22;5835;42.930;25.178;2023-10-13T13:28:00;27.00;99.90
11559;DHT22;5835;42.930;25.178;2023-10-13T13:30:32;27.10;99.90
11559;DHT22;5835;42.930;25.178;2023-10-13T13:33:01;27.00;99.90
11559;DHT22;5835;42.930;25.178;2023-10-13T13:35:37;27.00;99.90
11559;DHT22;5835;42.930;25.178;2023-10-13T13:38:04;27.00;99.90
11559;DHT22;5835;42.930;25.178;2023-10-13T13:40:40;26.90;99.90
11559;DHT22;5835;42.930;25.178;2023-10-13T13:43:10;26.90;99.90
11559;DHT22;5835;42.930;25.178;2023-10-13T13:45:46;26.90;99.90
11559;DHT22;5835;42.930;25.178;2023-10-13T13:48:14;27.00;99.90
11559;DHT22;5835;42.930;25.178;2023-10-13T13:50:41;27.30;99.90
11559;DHT22;5835;42.930;25.178;2023-10-13T13:53:10;27.20;99.90
11559;DHT22;5835;42.930;25.178;2023-10-13T13:55:37;27.20;99.90
11559;DHT22;5835;42.930;25.178;2023-10-13T13:58:06;27.20;99.90
11559;DHT22;5835;42.930;25.178;2023-10-13T14:00:36;27.00;99.90
11559;DHT22;5835;42.930;25.178;2023-10-13T14:03:05;26.60;99.90
11559;DHT22;5835;42.930;25.178;2023-10-13T14:05:41;26.60;99.90
11559;DHT22;5835;42.930;25.178;2023-10-13T14:08:08;26.70;99.90
11559;DHT22;5835;42.930;25.178;2023-10-13T14:10:38;26.50;99.90
11559;DHT22;5835;42.930;25.178;2023-10-13T14:13:19;26.40;99.90
11559;DHT22;5835;42.930;25.178;2023-10-13T14:15:48;26.70;99.90
11559;DHT22;5835;42.930;25.178;2023-10-13T14:18:16;26.60;99.90
11559;DHT22;5835;42.930;25.178;2023-10-13T14:20:44;26.50;99.90
11559;DHT22;5835;42.930;25.178;2023-10-13T14:23:11;26.30;99.90
11559;DHT22;5835;42.930;25.178;2023-10-13T14:25:38;26.00;99.90
11559;DHT22;5835;42.930;25.178;2023-10-13T14:28:11;26.10;99.90
11559;DHT22;5835;42.930;25.178;2023-10-13T14:30:43;25.90;99.90
11559;DHT22;5835;42.930;25.178;2023-10-13T14:33:11;26.00;99.90
11559;DHT22;5835;42.930;25.178;2023-10-13T14:35:39;26.10;99.90
11559;DHT22;5835;42.930;25.178;2023-10-13T14:38:06;26.00;99.90
11559;DHT22;5835;42.930;25.178;2023-10-13T14:40:34;25.90;99.90
11559;DHT22;5835;42.930;25.178;2023-10-13T14:43:01;25.70;99.90
11559;DHT22;5835;42.930;25.178;2023-10-13T14:45:30;25.80;99.90
11559;DHT22;5835;42.930;25.178;2023-10-13T14:48:00;25.80;99.90
11559;DHT22;5835;42.930;25.178;2023-10-13T14:50:27;25.90;99.90
11559;DHT22;5835;42.930;25.178;2023-10-13T14:52:55;25.90;99.90
11559;DHT22;5835;42.930;25.178;2023-10-13T14:55:23;25.80;99.90
11559;DHT22;5835;42.930;25.178;2023-10-13T14:58:04;25.80;99.90
11559;DHT22;5835;42.930;25.178;2023-10-13T15:00:33;25.80;99.90
11559;DHT22;5835;42.930;25.178;2023-10-13T15:03:01;25.80;99.90
11559;DHT22;5835;42.930;25.178;2023-10-13T15:05:32;25.80;99.90
11559;DHT22;5835;42.930;25.178;2023-10-13T15:08:03;25.90;99.90
11559;DHT22;5835;42.930;25.178;2023-10-13T15:10:32;25.60;99.90
11559;DHT22;5835;42.930;25.178;2023-10-13T15:13:02;25.40;99.90
11559;DHT22;5835;42.930;25.178;2023-10-13T15:15:29;25.30;99.90
11559;DHT22;5835;42.930;25.178;2023-10-13T15:17:58;25.50;99.90
11559;DHT22;5835;42.930;25.178;2023-10-13T15:20:28;25.70;99.90
11559;DHT22;5835;42.930;25.178;2023-10-13T15:22:55;25.70;99.90
11559;DHT22;5835;42.930;25.178;2023-10-13T15:25:26;25.80;99.90
11559;DHT22;5835;42.930;25.178;2023-10-13T15:28:05;25.80;99.90
11559;DHT22;5835;42.930;25.178;2023-10-13T15:30:35;25.50;99.90
11559;DHT22;5835;42.930;25.178;2023-10-13T15:33:11;25.30;99.90
11559;DHT22;5835;42.930;25.178;2023-10-13T15:35:39;25.00;99.90
11559;DHT22;5835;42.930;25.178;2023-10-13T15:38:09;24.90;99.90
11559;DHT22;5835;42.930;25.178;2023-10-13T15:40:42;24.60;99.90
11559;DHT22;5835;42.930;25.178;2023-10-13T15:43:09;24.50;99.90
11559;DHT22;5835;42.930;25.178;2023-10-13T15:45:36;24.40;99.90
11559;DHT22;5835;42.930;25.178;2023-10-13T15:48:06;24.30;99.90
11559;DHT22;5835;42.930;25.178;2023-10-13T15:50:36;24.10;99.90
11559;DHT22;5835;42.930;25.178;2023-10-13T15:53:06;24.10;99.90
11559;DHT22;5835;42.930;25.178;2023-10-13T15:55:36;23.90;99.90
11559;DHT22;5835;42.930;25.178;2023-10-13T15:58:05;23.90;99.90
11559;DHT22;5835;42.930;25.178;2023-10-13T16:00:34;23.80;99.90
11559;DHT22;5835;42.930;25.178;2023-10-13T16:03:02;23.50;99.90
11559;DHT22;5835;42.930;25.178;2023-10-13T16:05:37;23.40;99.90
11559;DHT22;5835;42.930;25.178;2023-10-13T16:08:06;23.20;99.90
11559;DHT22;5835;42.930;25.178;2023-10-13T16:10:38;23.10;99.90
11559;DHT22;5835;42.930;25.178;2023-10-13T16:13:07;23.10;99.90
11559;DHT22;5835;42.930;25.178;2023-10-13T16:15:41;23.10;99.90
11559;DHT22;5835;42.930;25.178;2023-10-13T16:18:09;22.90;99.90
11559;DHT22;5835;42.930;25.178;2023-10-13T16:20:37;22.80;99.90
11559;DHT22;5835;42.930;25.178;2023-10-13T16:23:04;22.70;99.90